Time;durP1;ratioP1;P1;durP2;ratioP2;P2;SDS_P1;SDS_P2;PMS_P1;PMS_P2;Temp;Humidity;BMP_temperature;BMP_pressure;BME280_temperature;BME280_humidity;BME280_pressure;Samples;Min_cycle;Max_cycle;Signal;HPM_P1;HPM_P2
2023/03/04 00:00:05;;;;;;;20.10;4.43;;;;;;;4.14;100.00;102496.81;4966503;28;20038;-82
2023/03/04 00:02:30;;;;;;;20.60;4.53;;;;;;;4.15;100.00;102498.53;4966219;28;20411;-82
2023/03/04 00:04:56;;;;;;;20.90;4.27;;;;;;;4.15;99.80;102501.22;4979395;28;20105;-82
2023/03/04 00:07:21;;;;;;;20.70;4.20;;;;;;;4.14;100.00;102499.50;4981164;28;20679;-82
2023/03/04 00:09:46;;;;;;;18.30;4.77;;;;;;;4.09;100.00;102500.88;4982921;28;20880;-82
2023/03/04 00:12:12;;;;;;;18.20;4.13;;;;;;;4.11;100.00;102498.91;4950915;28;20045;-82
2023/03/04 00:14:37;;;;;;;23.87;4.47;;;;;;;4.15;99.90;102500.38;4965850;28;20042;-82
2023/03/04 00:17:03;;;;;;;23.27;4.47;;;;;;;4.12;100.00;102498.78;4980793;28;20061;-82
2023/03/04 00:19:29;;;;;;;19.27;4.60;;;;;;;4.11;100.00;102497.09;4966100;28;20069;-82
2023/03/04 00:21:55;;;;;;;18.87;4.33;;;;;;;4.11;100.00;102497.09;4981985;28;20039;-82
2023/03/04 00:24:20;;;;;;;20.53;4.03;;;;;;;4.15;99.91;102498.53;4965075;28;20061;-82
2023/03/04 00:26:46;;;;;;;21.77;4.17;;;;;;;4.18;100.00;102495.56;4981733;28;20047;-81
2023/03/04 00:29:11;;;;;;;19.57;4.33;;;;;;;4.26;99.74;102499.44;4965631;28;20048;-82
2023/03/04 00:31:36;;;;;;;20.97;4.13;;;;;;;4.29;98.83;102499.19;4968773;28;20034;-81
2023/03/04 00:34:02;;;;;;;19.07;4.20;;;;;;;4.34;98.77;102494.31;4951950;28;20058;-82
2023/03/04 00:36:27;;;;;;;20.47;4.10;;;;;;;4.32;98.78;102488.19;4968031;28;20042;-88
2023/03/04 00:38:53;;;;;;;16.03;3.80;;;;;;;4.33;98.53;102484.53;4982873;28;20073;-88
2023/03/04 00:41:18;;;;;;;16.73;3.90;;;;;;;4.31;98.14;102484.69;4958492;28;20193;-88
2023/03/04 00:43:43;;;;;;;16.40;3.87;;;;;;;4.32;98.63;102485.50;4985662;28;20038;-88
2023/03/04 00:46:09;;;;;;;19.40;4.30;;;;;;;4.38;98.39;102487.69;4984263;28;20113;-88
2023/03/04 00:48:34;;;;;;;18.43;4.27;;;;;;;4.22;99.18;102488.13;4984581;28;20066;-87
2023/03/04 00:50:59;;;;;;;19.80;4.40;;;;;;;4.26;98.23;102489.56;4952630;28;20441;-88
2023/03/04 00:53:25;;;;;;;22.13;4.03;;;;;;;4.21;99.03;102491.78;4955981;28;20047;-88
2023/03/04 00:55:50;;;;;;;18.70;3.97;;;;;;;4.16;99.77;102492.19;4989315;28;20042;-88
2023/03/04 00:58:16;;;;;;;22.47;4.13;;;;;;;4.18;99.70;102492.91;4981708;28;20046;-82
2023/03/04 01:00:41;;;;;;;19.73;4.10;;;;;;;4.12;100.00;102493.44;4967467;28;20062;-88
2023/03/04 01:03:07;;;;;;;19.07;4.00;;;;;;;4.19;100.00;102488.41;4979605;28;20042;-88
2023/03/04 01:05:34;;;;;;;20.37;4.20;;;;;;;4.21;100.00;102486.41;4984957;28;20038;-88
2023/03/04 01:08:00;;;;;;;18.60;4.00;;;;;;;4.24;100.00;102491.53;4980811;28;20039;-89
2023/03/04 01:10:25;;;;;;;20.00;4.07;;;;;;;4.23;99.97;102490.69;4982729;28;21847;-88
2023/03/04 01:12:51;;;;;;;18.93;3.77;;;;;;;4.29;99.60;102496.53;4984000;28;20046;-81
2023/03/04 01:15:16;;;;;;;15.83;3.87;;;;;;;4.25;99.20;102495.91;4983866;28;20046;-81
2023/03/04 01:17:41;;;;;;;20.03;3.93;;;;;;;4.28;99.23;102494.81;4982302;28;20046;-82
2023/03/04 01:20:08;;;;;;;17.93;4.30;;;;;;;4.20;99.81;102499.00;4966955;28;20046;-82
2023/03/04 01:22:34;;;;;;;18.67;3.97;;;;;;;4.23;100.00;102497.91;4981819;28;20066;-87
2023/03/04 01:25:00;;;;;;;19.20;4.00;;;;;;;4.16;100.00;102489.50;4985404;28;20600;-88
2023/03/04 01:27:25;;;;;;;21.40;4.27;;;;;;;4.18;100.00;102492.06;4986127;28;20527;-87
2023/03/04 01:29:50;;;;;;;22.00;4.23;;;;;;;4.13;100.00;102492.41;4982046;28;20046;-87
2023/03/04 01:32:16;;;;;;;18.57;4.50;;;;;;;4.10;100.00;102490.00;4979533;28;20148;-87
2023/03/04 01:34:41;;;;;;;18.63;4.80;;;;;;;4.15;100.00;102486.97;4969790;28;20042;-88
2023/03/04 01:37:07;;;;;;;18.93;3.97;;;;;;;4.13;100.00;102488.91;4980609;28;20070;-87
2023/03/04 01:39:32;;;;;;;21.57;4.33;;;;;;;4.10;100.00;102481.97;4983806;28;20129;-88
2023/03/04 01:41:58;;;;;;;16.47;4.07;;;;;;;4.13;100.00;102488.91;4984272;28;20050;-88
2023/03/04 01:44:23;;;;;;;19.50;4.00;;;;;;;4.06;100.00;102483.19;4985235;28;20125;-88
2023/03/04 01:46:52;;;;;;;21.10;4.00;;;;;;;4.13;100.00;102479.00;4984405;28;20491;-88
2023/03/04 01:49:18;;;;;;;16.23;4.07;;;;;;;4.05;100.00;102476.13;4983918;28;20117;-88
2023/03/04 01:51:48;;;;;;;17.80;3.93;;;;;;;4.04;100.00;102475.28;4979246;28;20058;-87
2023/03/04 01:54:14;;;;;;;19.63;4.03;;;;;;;4.11;100.00;102464.88;4968442;28;20152;-87
2023/03/04 01:56:39;;;;;;;19.97;3.93;;;;;;;4.04;100.00;102461.03;4986077;28;20073;-88
2023/03/04 01:59:23;;;;;;;16.67;3.37;;;;;;;4.06;100.00;102464.41;4968998;28;20065;-88
2023/03/04 02:01:51;;;;;;;16.97;3.30;;;;;;;4.09;100.00;102456.09;4978314;28;20088;-88
2023/03/04 02:04:20;;;;;;;20.17;3.90;;;;;;;4.16;100.00;102453.75;4986133;28;20047;-88
2023/03/04 02:06:46;;;;;;;18.00;3.40;;;;;;;4.09;100.00;102453.44;4985881;28;20398;-88
2023/03/04 02:09:13;;;;;;;15.07;3.57;;;;;;;4.09;100.00;102447.22;4970364;28;20049;-87
2023/03/04 02:11:39;;;;;;;14.13;3.73;;;;;;;4.06;100.00;102451.84;4980471;28;20052;-88
2023/03/04 02:14:05;;;;;;;18.43;4.27;;;;;;;4.12;100.00;102445.13;4980081;28;20042;-88
2023/03/04 02:16:31;;;;;;;16.80;3.37;;;;;;;4.11;100.00;102442.56;4971148;28;20145;-88
2023/03/04 02:18:57;;;;;;;17.47;3.57;;;;;;;4.15;100.00;102444.88;4969723;28;20505;-88
2023/03/04 02:21:26;;;;;;;16.07;3.30;;;;;;;4.15;100.00;102435.97;4982583;28;20410;-88
2023/03/04 02:24:18;;;;;;;18.23;3.40;;;;;;;4.12;100.00;102445.13;4973423;28;20030;-88
2023/03/04 02:26:45;;;;;;;14.60;3.77;;;;;;;4.14;100.00;102436.97;4978836;28;20043;-87
2023/03/04 02:29:13;;;;;;;16.07;3.50;;;;;;;4.11;100.00;102439.88;4983102;28;20031;-87
2023/03/04 02:31:49;;;;;;;17.73;3.90;;;;;;;4.07;100.00;102439.31;4965386;28;20034;-87
2023/03/04 02:34:18;;;;;;;16.43;3.53;;;;;;;4.05;100.00;102435.88;4970596;28;20105;-88
2023/03/04 02:36:45;;;;;;;17.80;3.80;;;;;;;4.03;100.00;102433.34;4980115;28;20433;-88
2023/03/04 02:39:19;;;;;;;17.73;3.60;;;;;;;4.07;100.00;102431.25;4964103;28;20403;-88
2023/03/04 02:41:45;;;;;;;17.95;3.55;;;;;;;4.05;100.00;102434.06;4982831;28;20057;-82
2023/03/04 02:44:22;;;;;;;17.90;3.77;;;;;;;4.04;100.00;102432.38;4980033;28;20045;-82
2023/03/04 02:46:48;;;;;;;17.03;4.23;;;;;;;4.02;100.00;102423.59;4982173;28;20039;-81
2023/03/04 02:49:14;;;;;;;18.20;4.03;;;;;;;4.04;100.00;102431.53;4982055;28;20038;-82
2023/03/04 02:51:39;;;;;;;18.77;4.13;;;;;;;4.03;100.00;102424.47;4982232;28;20053;-82
2023/03/04 02:54:14;;;;;;;19.87;3.80;;;;;;;4.01;100.00;102421.91;4971223;28;20125;-88
2023/03/04 02:56:45;;;;;;;18.47;3.80;;;;;;;4.05;100.00;102422.47;4979961;28;20478;-88
2023/03/04 02:59:10;;;;;;;15.50;3.40;;;;;;;4.04;100.00;102418.13;4965009;28;20026;-88
2023/03/04 03:01:35;;;;;;;17.47;3.77;;;;;;;4.06;100.00;102416.13;4979810;28;20046;-88
2023/03/04 03:04:01;;;;;;;16.70;3.37;;;;;;;4.10;100.00;102419.44;4981221;28;20152;-88
2023/03/04 03:06:26;;;;;;;18.30;3.90;;;;;;;4.12;100.00;102417.44;4978366;28;20073;-88
2023/03/04 03:08:51;;;;;;;17.67;3.60;;;;;;;4.04;100.00;102410.91;4963877;28;20402;-88
2023/03/04 03:11:17;;;;;;;17.80;4.00;;;;;;;4.03;100.00;102411.03;4982455;28;20043;-88
2023/03/04 03:13:42;;;;;;;14.80;3.47;;;;;;;4.04;100.00;102413.59;4971046;28;20049;-88
2023/03/04 03:16:07;;;;;;;16.17;3.57;;;;;;;4.00;100.00;102405.94;4980867;28;20045;-88
2023/03/04 03:18:33;;;;;;;16.73;3.23;;;;;;;4.05;100.00;102403.69;4980926;28;20047;-88
2023/03/04 03:20:58;;;;;;;15.20;3.47;;;;;;;4.00;100.00;102404.09;4964413;28;20589;-88
2023/03/04 03:23:23;;;;;;;15.03;3.13;;;;;;;4.02;100.00;102412.84;4963128;28;20030;-88
2023/03/04 03:25:49;;;;;;;15.63;3.43;;;;;;;4.02;100.00;102406.66;4974380;28;20082;-88
2023/03/04 03:28:14;;;;;;;15.20;3.53;;;;;;;4.03;100.00;102405.69;4964404;28;21302;-82
2023/03/04 03:30:39;;;;;;;15.70;3.30;;;;;;;4.04;100.00;102404.72;4982730;28;20046;-81
2023/03/04 03:33:05;;;;;;;12.57;3.13;;;;;;;4.03;100.00;102409.19;4947897;28;20034;-82
2023/03/04 03:35:31;;;;;;;17.90;3.50;;;;;;;4.10;100.00;102392.59;4981689;28;20050;-82
2023/03/04 03:37:56;;;;;;;15.73;3.27;;;;;;;4.04;100.00;102399.34;4952917;28;20074;-82
2023/03/04 03:40:21;;;;;;;16.33;3.63;;;;;;;4.06;100.00;102402.72;4966080;28;20042;-82
2023/03/04 03:42:47;;;;;;;19.47;3.30;;;;;;;4.01;100.00;102400.44;4952310;28;20074;-82
2023/03/04 03:45:12;;;;;;;18.13;3.53;;;;;;;4.04;100.00;102400.19;4965403;28;21705;-82
2023/03/04 03:47:38;;;;;;;16.47;3.30;;;;;;;4.07;100.00;102393.72;4967227;28;20042;-82
2023/03/04 03:50:04;;;;;;;15.43;3.43;;;;;;;4.05;100.00;102390.28;4981839;28;21788;-82
2023/03/04 03:52:29;;;;;;;14.10;3.13;;;;;;;4.00;100.00;102400.59;4965015;28;20314;-82
2023/03/04 03:54:55;;;;;;;15.90;3.43;;;;;;;4.05;100.00;102388.47;4952036;28;20530;-82
2023/03/04 03:57:20;;;;;;;17.17;3.67;;;;;;;4.02;100.00;102387.88;4983101;28;20050;-81
2023/03/04 03:59:45;;;;;;;13.33;3.37;;;;;;;4.03;100.00;102394.94;4978965;28;20039;-82
2023/03/04 04:02:11;;;;;;;13.43;3.50;;;;;;;4.03;100.00;102395.78;4954028;28;20053;-82
2023/03/04 04:04:36;;;;;;;15.83;3.40;;;;;;;4.02;100.00;102394.06;4985354;28;20058;-87
2023/03/04 04:07:02;;;;;;;17.83;3.70;;;;;;;3.99;100.00;102401.56;5122297;22;20051;-88
2023/03/04 04:09:27;;;;;;;16.40;3.87;;;;;;;4.00;100.00;102400.59;4976903;28;20043;-88
2023/03/04 04:11:52;;;;;;;18.40;3.83;;;;;;;4.03;100.00;102403.00;4957370;28;20165;-82
2023/03/04 04:14:18;;;;;;;18.83;3.57;;;;;;;3.98;100.00;102403.38;4920300;28;20057;-88
2023/03/04 04:16:43;;;;;;;15.63;3.53;;;;;;;3.94;100.00;102398.41;4959757;28;20477;-88
2023/03/04 04:19:15;;;;;;;19.27;3.33;;;;;;;3.98;100.00;102399.84;4951976;28;20046;-88
2023/03/04 04:21:40;;;;;;;17.37;3.37;;;;;;;3.94;100.00;102401.09;4958847;28;20051;-87
2023/03/04 04:24:06;;;;;;;16.67;3.50;;;;;;;4.02;100.00;102395.94;4973664;28;20057;-88
2023/03/04 04:26:31;;;;;;;17.53;3.40;;;;;;;3.95;100.00;102403.63;4957040;28;20057;-82
2023/03/04 04:28:57;;;;;;;19.70;3.40;;;;;;;3.95;100.00;102400.13;4935186;28;20130;-82
2023/03/04 04:31:22;;;;;;;14.20;3.37;;;;;;;3.89;100.00;102399.66;4956665;28;20125;-82
2023/03/04 04:33:47;;;;;;;19.17;3.53;;;;;;;3.87;100.00;102398.91;4956377;28;20050;-82
2023/03/04 04:36:15;;;;;;;16.80;3.43;;;;;;;3.91;100.00;102396.84;4956196;28;20983;-82
2023/03/04 04:38:40;;;;;;;13.43;3.37;;;;;;;3.87;100.00;102398.06;4950330;28;20050;-82
2023/03/04 04:41:19;;;;;;;16.90;3.77;;;;;;;3.90;100.00;102400.47;4941998;28;20039;-82
2023/03/04 04:43:45;;;;;;;10.53;3.03;;;;;;;3.86;100.00;102402.59;4957777;28;20161;-82
2023/03/04 04:46:10;;;;;;;14.90;3.47;;;;;;;3.95;100.00;102402.78;4940127;28;20054;-88
2023/03/04 04:48:35;;;;;;;16.13;3.37;;;;;;;3.86;100.00;102399.91;4919345;28;20129;-82
2023/03/04 04:51:01;;;;;;;16.17;3.37;;;;;;;3.89;100.00;102406.84;4941487;28;20150;-88
2023/03/04 04:53:26;;;;;;;16.20;3.40;;;;;;;3.85;100.00;102405.41;4956999;28;20134;-88
2023/03/04 04:55:51;;;;;;;14.77;3.17;;;;;;;3.88;100.00;102408.66;4958256;28;20050;-88
2023/03/04 04:58:17;;;;;;;18.07;3.83;;;;;;;3.98;100.00;102410.56;4951198;28;20168;-88
2023/03/04 05:00:42;;;;;;;17.90;3.77;;;;;;;3.89;100.00;102412.22;4958340;28;20529;-88
2023/03/04 05:03:08;;;;;;;16.63;3.77;;;;;;;3.92;100.00;102405.72;4958002;28;20043;-82
2023/03/04 05:05:33;;;;;;;19.00;4.07;;;;;;;3.96;100.00;102413.38;4956037;28;20055;-82
2023/03/04 05:07:58;;;;;;;15.07;3.40;;;;;;;3.90;100.00;102413.91;4932780;28;20470;-82
2023/03/04 05:10:24;;;;;;;17.77;3.33;;;;;;;3.89;100.00;102407.69;4948987;28;20057;-82
2023/03/04 05:12:49;;;;;;;17.17;3.30;;;;;;;3.87;100.00;102409.63;4937917;28;20043;-82
2023/03/04 05:15:14;;;;;;;16.07;3.40;;;;;;;3.91;100.00;102414.75;4955255;28;20057;-88
2023/03/04 05:17:40;;;;;;;17.37;3.20;;;;;;;3.82;100.00;102403.84;4955095;28;20069;-88
2023/03/04 05:20:06;;;;;;;18.43;3.43;;;;;;;3.86;100.00;102412.44;4933688;28;20105;-88
2023/03/04 05:22:31;;;;;;;15.77;3.33;;;;;;;3.80;100.00;102408.47;4933580;28;20050;-88
2023/03/04 05:24:57;;;;;;;17.53;3.33;;;;;;;3.84;100.00;102414.44;4933328;28;20051;-88
2023/03/04 05:27:22;;;;;;;17.83;3.67;;;;;;;3.87;100.00;102415.00;4955165;28;20777;-88
2023/03/04 05:29:48;;;;;;;14.13;3.43;;;;;;;3.83;100.00;102405.50;4950342;28;20338;-88
2023/03/04 05:32:13;;;;;;;17.33;3.43;;;;;;;3.83;100.00;102402.84;4956218;28;20078;-88
2023/03/04 05:34:38;;;;;;;11.10;2.90;;;;;;;3.87;100.00;102401.59;4957092;28;20280;-88
2023/03/04 05:37:04;;;;;;;15.97;3.20;;;;;;;3.84;100.00;102404.53;4954820;28;21876;-88
2023/03/04 05:39:29;;;;;;;13.40;3.00;;;;;;;3.87;100.00;102409.63;4956621;28;20510;-88
2023/03/04 05:41:54;;;;;;;13.33;2.93;;;;;;;3.84;100.00;102404.53;4933744;28;20046;-88
2023/03/04 05:44:20;;;;;;;16.07;3.27;;;;;;;3.81;100.00;102414.69;4956691;28;20466;-87
2023/03/04 05:46:45;;;;;;;16.30;3.27;;;;;;;3.81;100.00;102420.91;4956727;28;20046;-88
2023/03/04 05:49:11;;;;;;;13.07;3.03;;;;;;;3.81;100.00;102420.06;4921336;28;20074;-88
2023/03/04 05:51:36;;;;;;;13.87;3.17;;;;;;;3.81;100.00;102418.22;4940629;28;20064;-89
2023/03/04 05:54:01;;;;;;;14.60;2.80;;;;;;;3.79;100.00;102414.78;4965385;28;20170;-88
2023/03/04 05:56:28;;;;;;;13.33;3.07;;;;;;;3.80;100.00;102419.19;4932380;28;20049;-82
2023/03/04 05:58:58;;;;;;;16.13;3.20;;;;;;;3.86;100.00;102424.03;4954001;28;20638;-82
2023/03/04 06:01:24;;;;;;;16.80;2.90;;;;;;;3.88;100.00;102424.75;4948836;28;20042;-82
2023/03/04 06:03:49;;;;;;;18.13;3.10;;;;;;;3.82;100.00;102413.69;4939388;28;20034;-82
2023/03/04 06:06:15;;;;;;;13.77;3.13;;;;;;;3.82;100.00;102421.72;4904404;28;1236140;-82
2023/03/04 06:08:41;;;;;;;12.27;2.97;;;;;;;3.80;100.00;102424.53;4936494;28;20660;-82
2023/03/04 06:11:07;;;;;;;14.80;3.00;;;;;;;3.76;100.00;102428.47;4952633;28;21445;-82
2023/03/04 06:13:33;;;;;;;15.07;3.00;;;;;;;3.73;100.00;102420.69;4951259;28;20089;-82
2023/03/04 06:15:59;;;;;;;13.27;2.80;;;;;;;3.75;100.00;102424.06;4937220;28;20125;-82
2023/03/04 06:18:25;;;;;;;13.13;3.30;;;;;;;3.75;100.00;102425.91;4928978;28;20047;-82
2023/03/04 06:20:58;;;;;;;11.87;2.90;;;;;;;3.71;100.00;102425.31;4936597;28;20043;-82
2023/03/04 06:23:24;;;;;;;12.97;2.80;;;;;;;3.73;100.00;102426.03;4936250;28;20081;-82
2023/03/04 06:25:53;;;;;;;12.43;2.70;;;;;;;3.69;100.00;102428.13;4935430;28;20125;-82
2023/03/04 06:28:19;;;;;;;13.60;2.90;;;;;;;3.70;100.00;102426.31;4937002;28;20044;-82
2023/03/04 06:30:44;;;;;;;11.30;2.50;;;;;;;3.69;100.00;102422.75;4919166;28;20050;-88
2023/03/04 06:33:09;;;;;;;9.97;2.80;;;;;;;3.68;100.00;102429.09;4935185;28;20038;-87
2023/03/04 06:35:35;;;;;;;6.57;2.30;;;;;;;3.67;100.00;102430.09;4930208;28;20046;-87
2023/03/04 06:38:00;;;;;;;9.97;2.33;;;;;;;3.65;100.00;102440.06;4923082;28;20036;-88
2023/03/04 06:40:26;;;;;;;10.00;2.27;;;;;;;3.65;100.00;102437.41;4946700;28;20081;-88
2023/03/04 06:42:51;;;;;;;11.77;2.50;;;;;;;3.60;100.00;102439.59;4951567;28;20047;-88
2023/03/04 06:45:16;;;;;;;11.30;2.77;;;;;;;3.61;100.00;102443.16;4935435;28;20043;-88
2023/03/04 06:47:43;;;;;;;9.70;2.50;;;;;;;3.59;100.00;102437.06;4936931;28;20095;-88
2023/03/04 06:50:11;;;;;;;10.80;2.50;;;;;;;3.63;100.00;102441.19;4937379;28;20134;-88
2023/03/04 06:52:37;;;;;;;8.73;2.47;;;;;;;3.61;100.00;102438.63;4937081;28;20039;-88
2023/03/04 06:55:02;;;;;;;8.87;2.53;;;;;;;3.59;100.00;102442.41;4913846;28;20122;-88
2023/03/04 06:57:28;;;;;;;9.50;2.80;;;;;;;3.63;100.00;102438.50;4937627;28;20102;-84
2023/03/04 06:59:53;;;;;;;11.23;3.00;;;;;;;3.65;100.00;102442.75;4935720;28;20093;-82
2023/03/04 07:02:18;;;;;;;13.70;2.67;;;;;;;3.63;100.00;102441.19;4913077;28;20051;-82
2023/03/04 07:04:44;;;;;;;11.53;2.70;;;;;;;3.66;100.00;102439.09;4919917;28;21605;-83
2023/03/04 07:07:10;;;;;;;11.37;2.70;;;;;;;3.68;100.00;102441.66;4947991;28;21708;-82
2023/03/04 07:09:35;;;;;;;10.63;2.70;;;;;;;3.68;100.00;102434.44;4947591;28;21858;-82
2023/03/04 07:12:01;;;;;;;17.73;3.20;;;;;;;3.70;100.00;102437.03;4933048;28;20035;-87
2023/03/04 07:14:27;;;;;;;13.10;2.77;;;;;;;3.70;100.00;102440.56;4935929;28;20055;-88
2023/03/04 07:16:52;;;;;;;11.93;3.17;;;;;;;3.72;100.00;102437.75;4936702;28;20085;-88
2023/03/04 07:19:17;;;;;;;10.90;2.90;;;;;;;3.73;100.00;102444.81;4945002;28;20065;-88
2023/03/04 07:21:43;;;;;;;14.47;3.20;;;;;;;3.77;100.00;102442.72;4938100;28;20051;-89
2023/03/04 07:24:08;;;;;;;11.10;2.77;;;;;;;3.74;100.00;102441.16;4955794;28;20063;-87
2023/03/04 07:26:33;;;;;;;13.87;3.40;;;;;;;3.76;100.00;102447.22;4954513;28;20836;-88
2023/03/04 07:28:59;;;;;;;12.20;3.20;;;;;;;3.79;100.00;102455.00;4961070;28;20917;-88
2023/03/04 07:31:30;;;;;;;14.57;3.13;;;;;;;3.88;100.00;102453.41;4952904;28;20077;-87
2023/03/04 07:33:58;;;;;;;14.47;3.17;;;;;;;3.88;100.00;102461.47;4958011;28;20067;-87
2023/03/04 07:36:25;;;;;;;13.40;3.33;;;;;;;3.92;100.00;102462.03;4946903;28;20035;-87
2023/03/04 07:38:53;;;;;;;12.57;3.77;;;;;;;3.92;100.00;102462.91;4961184;28;20042;-88
2023/03/04 07:41:20;;;;;;;17.50;3.50;;;;;;;3.93;100.00;102461.94;4958206;28;20105;-87
2023/03/04 07:43:45;;;;;;;12.57;2.90;;;;;;;3.92;100.00;102464.72;4944883;28;20507;-87
2023/03/04 07:46:11;;;;;;;12.90;3.00;;;;;;;3.97;100.00;102468.75;4961415;28;20039;-87
2023/03/04 07:48:36;;;;;;;12.93;3.23;;;;;;;4.00;100.00;102473.00;4960258;28;20114;-86
2023/03/04 07:51:13;;;;;;;14.00;3.57;;;;;;;4.09;100.00;102476.72;4941621;28;20065;-87
2023/03/04 07:53:40;;;;;;;12.87;3.17;;;;;;;4.11;100.00;102475.63;4948655;28;20035;-87
2023/03/04 07:56:07;;;;;;;15.37;3.23;;;;;;;4.12;100.00;102476.47;4940702;28;20482;-89
2023/03/04 07:58:32;;;;;;;11.30;3.20;;;;;;;4.17;100.00;102477.78;4930840;28;20050;-87
2023/03/04 08:00:58;;;;;;;10.33;3.10;;;;;;;4.19;100.00;102478.50;4959571;28;20038;-87
2023/03/04 08:03:24;;;;;;;14.30;3.40;;;;;;;4.27;100.00;102485.91;4960837;28;20039;-87
2023/03/04 08:05:50;;;;;;;14.70;3.30;;;;;;;4.34;100.00;102480.88;4952942;28;20137;-82
2023/03/04 08:08:15;;;;;;;13.47;4.17;;;;;;;4.36;100.00;102478.91;4944291;28;20043;-84
2023/03/04 08:10:41;;;;;;;12.30;3.10;;;;;;;4.48;100.00;102483.22;4951293;28;20632;-81
2023/03/04 08:13:07;;;;;;;13.30;3.47;;;;;;;4.53;100.00;102481.00;4921401;28;20683;-81
2023/03/04 08:15:34;;;;;;;14.10;3.47;;;;;;;4.56;100.00;102475.34;4953432;28;20038;-82
2023/03/04 08:18:00;;;;;;;8.97;2.70;;;;;;;4.63;100.00;102480.22;4954674;28;20533;-81
2023/03/04 08:20:25;;;;;;;10.97;3.30;;;;;;;4.74;100.00;102477.44;4952952;28;20039;-81
2023/03/04 08:22:50;;;;;;;11.77;3.07;;;;;;;4.95;100.00;102477.41;4955933;28;20063;-81
2023/03/04 08:25:16;;;;;;;10.10;2.87;;;;;;;5.13;100.00;102485.69;4955328;28;20071;-81
2023/03/04 08:27:41;;;;;;;12.23;2.77;;;;;;;5.12;100.00;102486.66;4956402;28;20059;-81
2023/03/04 08:30:08;;;;;;;11.63;3.30;;;;;;;5.28;100.00;102482.63;4943176;28;20459;-81
2023/03/04 08:32:33;;;;;;;10.47;2.77;;;;;;;5.11;100.00;102486.81;4947918;28;20061;-81
2023/03/04 08:35:01;;;;;;;9.33;2.93;;;;;;;5.14;100.00;102484.72;4948434;28;20043;-81
2023/03/04 08:37:27;;;;;;;8.60;2.80;;;;;;;5.29;100.00;102495.06;4965675;28;20398;-81
2023/03/04 08:39:53;;;;;;;9.90;2.90;;;;;;;5.38;100.00;102494.25;4952894;28;20070;-82
2023/03/04 08:42:18;;;;;;;11.67;3.17;;;;;;;5.36;100.00;102494.41;4938709;28;20134;-81
2023/03/04 08:44:44;;;;;;;8.27;2.93;;;;;;;5.38;100.00;102486.19;4956909;28;20046;-81
2023/03/04 08:47:09;;;;;;;11.30;3.47;;;;;;;5.57;100.00;102488.91;4953191;28;20160;-81
2023/03/04 08:49:34;;;;;;;10.53;2.90;;;;;;;5.77;100.00;102493.47;4950215;28;20038;-81
2023/03/04 08:52:00;;;;;;;8.33;2.70;;;;;;;5.84;100.00;102492.78;4952436;28;20034;-81
2023/03/04 08:54:25;;;;;;;10.80;2.50;;;;;;;5.80;100.00;102488.69;4953564;28;20068;-81
2023/03/04 08:56:50;;;;;;;10.50;2.77;;;;;;;5.81;100.00;102487.69;4931491;28;20054;-81
2023/03/04 08:59:16;;;;;;;7.23;2.20;;;;;;;5.85;100.00;102494.50;4921911;28;20085;-81
2023/03/04 09:01:41;;;;;;;11.20;2.67;;;;;;;5.95;100.00;102491.81;4917043;28;20843;-81
2023/03/04 09:04:07;;;;;;;8.60;2.60;;;;;;;5.97;100.00;102494.34;4931541;28;20039;-87
2023/03/04 09:06:32;;;;;;;9.73;2.70;;;;;;;6.04;100.00;102480.22;4935107;28;20053;-87
2023/03/04 09:08:57;;;;;;;9.70;2.50;;;;;;;6.10;100.00;102484.19;4934482;28;20053;-87
2023/03/04 09:11:23;;;;;;;7.23;2.50;;;;;;;6.20;100.00;102485.06;4935282;28;20039;-88
2023/03/04 09:13:50;;;;;;;11.53;2.70;;;;;;;6.40;100.00;102477.78;4950658;28;20047;-87
2023/03/04 09:16:15;;;;;;;8.83;2.73;;;;;;;6.36;100.00;102472.84;4956162;28;20057;-88
2023/03/04 09:18:41;;;;;;;6.80;2.13;;;;;;;6.56;100.00;102470.97;4941965;28;20487;-87
2023/03/04 09:21:07;;;;;;;8.23;2.70;;;;;;;6.83;100.00;102467.50;4937991;28;20380;-88
2023/03/04 09:23:33;;;;;;;8.27;2.40;;;;;;;6.82;100.00;102463.09;4941356;28;20548;-88
2023/03/04 09:25:58;;;;;;;8.93;2.60;;;;;;;7.04;97.70;102467.25;4937768;28;20047;-81
2023/03/04 09:28:24;;;;;;;5.70;2.40;;;;;;;6.92;96.07;102463.91;4940580;28;20047;-82
2023/03/04 09:30:49;;;;;;;6.67;2.10;;;;;;;6.86;95.35;102461.78;4955009;28;20198;-81
2023/03/04 09:33:15;;;;;;;6.27;2.20;;;;;;;6.93;95.26;102462.06;4938004;28;20040;-82
2023/03/04 09:35:40;;;;;;;7.00;2.37;;;;;;;6.87;94.86;102459.97;4939994;28;20039;-82
2023/03/04 09:38:06;;;;;;;6.10;2.40;;;;;;;6.88;95.22;102459.81;4952588;28;20323;-82
2023/03/04 09:40:47;;;;;;;6.90;2.10;;;;;;;6.96;96.69;102469.00;4939915;28;20052;-81
2023/03/04 09:43:26;;;;;;;7.87;2.50;;;;;;;6.97;97.23;102462.63;4940402;28;20046;-82
2023/03/04 09:45:58;;;;;;;5.93;2.47;;;;;;;6.95;99.01;102470.00;4955127;28;20158;-81
2023/03/04 09:48:28;;;;;;;8.07;2.23;;;;;;;6.91;97.71;102464.91;4939730;28;20164;-81
2023/03/04 09:51:12;;;;;;;6.33;2.27;;;;;;;6.72;97.84;102459.59;4949260;28;20041;-81
2023/03/04 09:53:44;;;;;;;8.38;2.60;;;;;;;6.76;98.97;102455.59;4948865;28;20822;-87
2023/03/04 09:56:10;;;;;;;6.20;2.27;;;;;;;6.75;99.06;102456.59;4940557;28;20138;-87
2023/03/04 09:58:49;;;;;;;4.87;2.43;;;;;;;6.90;99.49;102460.50;4940508;28;20095;-87
2023/03/04 10:01:35;;;;;;;6.87;2.40;;;;;;;6.84;98.76;102462.94;4940870;28;20046;-87
2023/03/04 10:04:27;;;;;;;7.87;2.43;;;;;;;6.65;98.07;102463.84;4939967;28;20123;-87
2023/03/04 10:06:53;;;;;;;7.17;2.70;;;;;;;6.53;99.01;102455.09;4966241;28;20122;-88
2023/03/04 10:09:27;;;;;;;5.87;2.47;;;;;;;6.59;99.40;102460.75;4976433;28;20184;-87
2023/03/04 10:12:04;;;;;;;8.20;2.77;;;;;;;6.71;100.00;102453.34;4977068;28;20034;-88
2023/03/04 10:14:44;;;;;;;9.30;2.50;;;;;;;6.81;100.00;102458.69;4973067;28;20088;-87
2023/03/04 10:17:36;;;;;;;9.67;2.83;;;;;;;6.87;98.92;102458.13;4957234;28;20137;-87
2023/03/04 10:20:17;;;;;;;9.00;2.80;;;;;;;7.10;98.98;102453.19;4976266;28;20034;-88
2023/03/04 10:22:46;;;;;;;8.27;2.70;;;;;;;7.02;97.59;102450.41;4952386;28;20129;-87
2023/03/04 10:25:18;;;;;;;7.03;2.60;;;;;;;6.91;97.80;102454.13;4975904;28;20096;-88
2023/03/04 10:27:53;;;;;;;6.20;2.23;;;;;;;6.92;98.21;102445.06;4976695;28;20046;-87
2023/03/04 10:30:39;;;;;;;5.57;2.30;;;;;;;6.75;99.29;102456.59;4975342;28;20046;-88
2023/03/04 10:33:16;;;;;;;5.60;2.40;;;;;;;6.63;100.00;102455.91;4975314;28;20049;-87
2023/03/04 10:35:49;;;;;;;5.87;2.63;;;;;;;6.57;100.00;102456.53;4976570;28;20461;-87
2023/03/04 10:38:19;;;;;;;5.78;2.60;;;;;;;6.42;100.00;102456.13;4973113;28;20660;-81
2023/03/04 10:40:44;;;;;;;4.93;2.57;;;;;;;6.36;100.00;102448.63;4966628;28;20042;-81
2023/03/04 10:43:19;;;;;;;7.67;2.80;;;;;;;6.40;100.00;102444.63;4972175;28;20082;-81
2023/03/04 10:45:44;;;;;;;;;;;;;;;6.59;100.00;102443.75;4975168;28;21833;-81
2023/03/04 10:48:19;;;;;;;8.17;2.80;;;;;;;6.73;100.00;102447.81;4975277;28;19921;-81
2023/03/04 10:50:45;;;;;;;6.60;2.23;;;;;;;6.98;100.00;102442.75;4955272;28;20641;-81
2023/03/04 10:53:24;;;;;;;8.70;2.93;;;;;;;7.52;100.00;102441.03;4956729;28;20049;-82
2023/03/04 10:55:49;;;;;;;5.77;2.37;;;;;;;7.53;99.37;102437.31;4974297;28;20472;-81
2023/03/04 10:58:18;;;;;;;7.13;2.20;;;;;;;7.47;98.43;102437.94;4956388;28;20038;-81
2023/03/04 11:00:48;;;;;;;4.97;2.13;;;;;;;8.00;99.41;102436.25;4972907;28;20372;-82
2023/03/04 11:03:26;;;;;;;4.80;1.90;;;;;;;8.01;97.61;102437.09;4974752;28;20046;-82
2023/03/04 11:06:16;;;;;;;3.27;2.03;;;;;;;7.99;98.00;102433.72;4974475;28;20053;-82
2023/03/04 11:08:42;;;;;;;4.60;2.13;;;;;;;8.07;100.00;102428.38;4974326;28;20039;-81
2023/03/04 11:11:36;;;;;;;6.27;2.00;;;;;;;7.86;99.08;102426.88;4934412;28;20043;-88
2023/03/04 11:14:13;;;;;;;3.72;1.80;;;;;;;7.96;100.00;102428.63;4968271;28;20639;-87
2023/03/04 11:16:38;;;;;;;3.93;2.00;;;;;;;8.16;100.00;102421.19;4975324;28;20759;-87
2023/03/04 11:19:13;;;;;;;5.93;2.00;;;;;;;8.24;100.00;102427.50;4971628;28;20061;-87
2023/03/04 11:21:40;;;;;;;4.80;1.65;;;;;;;7.96;96.33;102423.25;4975463;28;20038;-88